sensor_id;sensor_type;location;lat;lon;timestamp;pressure;altitude;pressure_sealevel;temperature;humidity
72921;BME280;61064;51.654;5.476;2023-03-15T00:04:22;101258.34;;;2.27;76.50
72921;BME280;61064;51.654;5.476;2023-03-15T00:06:50;101261.25;;;2.33;76.76
72921;BME280;61064;51.654;5.476;2023-03-15T00:09:15;101216.19;;;2.04;76.70
72921;BME280;61064;51.654;5.476;2023-03-15T00:11:41;101242.88;;;2.33;76.94
72921;BME280;61064;51.654;5.476;2023-03-15T00:14:07;101248.25;;;2.36;76.96
72921;BME280;61064;51.654;5.476;2023-03-15T00:16:32;101286.50;;;2.48;76.98
72921;BME280;61064;51.654;5.476;2023-03-15T00:18:58;101186.16;;;1.98;77.34
72921;BME280;61064;51.654;5.476;2023-03-15T00:21:23;101290.22;;;2.54;77.46
72921;BME280;61064;51.654;5.476;2023-03-15T00:23:49;101279.84;;;2.57;77.26
72921;BME280;61064;51.654;5.476;2023-03-15T00:26:15;101245.00;;;2.41;77.37
72921;BME280;61064;51.654;5.476;2023-03-15T00:28:40;101249.25;;;2.38;77.62
72921;BME280;61064;51.654;5.476;2023-03-15T00:31:14;101266.88;;;2.60;77.68
72921;BME280;61064;51.654;5.476;2023-03-15T00:33:40;101262.59;;;2.62;77.83
72921;BME280;61064;51.654;5.476;2023-03-15T00:36:07;101259.88;;;2.60;77.64
72921;BME280;61064;51.654;5.476;2023-03-15T00:38:34;101233.41;;;2.36;77.83
72921;BME280;61064;51.654;5.476;2023-03-15T00:41:08;101272.84;;;2.57;77.80
72921;BME280;61064;51.654;5.476;2023-03-15T00:43:33;101285.09;;;2.57;78.12
72921;BME280;61064;51.654;5.476;2023-03-15T00:45:59;101277.16;;;2.55;78.24
72921;BME280;61064;51.654;5.476;2023-03-15T00:48:25;101269.94;;;2.51;78.20
72921;BME280;61064;51.654;5.476;2023-03-15T00:50:50;101274.47;;;2.54;78.22
72921;BME280;61064;51.654;5.476;2023-03-15T00:53:16;101236.53;;;2.28;78.34
72921;BME280;61064;51.654;5.476;2023-03-15T00:55:41;101255.53;;;2.41;78.55
72921;BME280;61064;51.654;5.476;2023-03-15T00:58:07;101280.69;;;2.56;78.57
72921;BME280;61064;51.654;5.476;2023-03-15T01:00:32;101248.97;;;2.32;78.77
72921;BME280;61064;51.654;5.476;2023-03-15T01:02:57;101264.38;;;2.43;78.83
72921;BME280;61064;51.654;5.476;2023-03-15T01:05:23;101298.22;;;2.57;79.11
72921;BME280;61064;51.654;5.476;2023-03-15T01:07:48;101323.25;;;2.68;79.19
72921;BME280;61064;51.654;5.476;2023-03-15T01:10:15;101333.09;;;2.72;79.16
72921;BME280;61064;51.654;5.476;2023-03-15T01:12:40;101307.69;;;2.53;79.15
72921;BME280;61064;51.654;5.476;2023-03-15T01:15:07;101330.94;;;2.63;79.35
72921;BME280;61064;51.654;5.476;2023-03-15T01:17:33;101342.63;;;2.70;79.36
72921;BME280;61064;51.654;5.476;2023-03-15T01:19:59;101344.97;;;2.64;79.23
72921;BME280;61064;51.654;5.476;2023-03-15T01:22:25;101352.56;;;2.58;79.22
72921;BME280;61064;51.654;5.476;2023-03-15T01:24:51;101334.16;;;2.38;79.20
72921;BME280;61064;51.654;5.476;2023-03-15T01:27:16;101307.16;;;2.23;79.47
72921;BME280;61064;51.654;5.476;2023-03-15T01:29:42;101276.34;;;2.00;79.59
72921;BME280;61064;51.654;5.476;2023-03-15T01:32:07;101350.53;;;2.33;79.73
72921;BME280;61064;51.654;5.476;2023-03-15T01:34:33;101294.47;;;1.95;79.56
72921;BME280;61064;51.654;5.476;2023-03-15T01:36:59;101274.63;;;1.83;79.81
72921;BME280;61064;51.654;5.476;2023-03-15T01:39:25;101339.97;;;2.14;79.67
72921;BME280;61064;51.654;5.476;2023-03-15T01:41:50;101350.84;;;2.21;79.91
72921;BME280;61064;51.654;5.476;2023-03-15T01:44:17;101304.53;;;1.86;79.79
72921;BME280;61064;51.654;5.476;2023-03-15T01:46:43;101359.44;;;2.19;80.02
72921;BME280;61064;51.654;5.476;2023-03-15T01:49:30;101355.09;;;2.19;79.98
72921;BME280;61064;51.654;5.476;2023-03-15T01:52:03;101362.91;;;2.18;80.22
72921;BME280;61064;51.654;5.476;2023-03-15T01:54:40;101367.09;;;2.14;80.08
72921;BME280;61064;51.654;5.476;2023-03-15T01:57:19;101319.53;;;1.89;80.13
72921;BME280;61064;51.654;5.476;2023-03-15T02:00:00;101312.84;;;1.78;80.38
72921;BME280;61064;51.654;5.476;2023-03-15T02:02:29;101312.84;;;1.78;80.25
72921;BME280;61064;51.654;5.476;2023-03-15T02:04:59;101379.31;;;2.14;80.31
72921;BME280;61064;51.654;5.476;2023-03-15T02:07:31;101341.94;;;2.00;80.45
72921;BME280;61064;51.654;5.476;2023-03-15T02:10:03;101273.34;;;1.57;80.50
72921;BME280;61064;51.654;5.476;2023-03-15T02:12:31;101347.09;;;1.98;80.56
72921;BME280;61064;51.654;5.476;2023-03-15T02:15:00;101343.56;;;1.98;80.48
72921;BME280;61064;51.654;5.476;2023-03-15T02:17:36;101383.66;;;2.13;80.63
72921;BME280;61064;51.654;5.476;2023-03-15T02:23:02;101360.53;;;2.04;80.69
72921;BME280;61064;51.654;5.476;2023-03-15T02:28:05;101341.47;;;1.91;80.55
72921;BME280;61064;51.654;5.476;2023-03-15T02:30:32;101355.56;;;1.93;80.93
72921;BME280;61064;51.654;5.476;2023-03-15T02:32:59;101323.50;;;1.81;80.78
72921;BME280;61064;51.654;5.476;2023-03-15T02:35:28;101285.72;;;1.59;81.00
72921;BME280;61064;51.654;5.476;2023-03-15T02:37:55;101315.00;;;1.68;80.61
72921;BME280;61064;51.654;5.476;2023-03-15T02:40:25;101377.22;;;2.06;81.12
72921;BME280;61064;51.654;5.476;2023-03-15T02:43:02;101326.94;;;1.80;81.38
72921;BME280;61064;51.654;5.476;2023-03-15T02:45:31;101380.09;;;2.11;81.07
72921;BME280;61064;51.654;5.476;2023-03-15T02:47:59;101357.69;;;2.00;81.32
72921;BME280;61064;51.654;5.476;2023-03-15T02:50:26;101396.19;;;2.19;81.38
72921;BME280;61064;51.654;5.476;2023-03-15T02:52:51;101385.91;;;2.23;81.36
72921;BME280;61064;51.654;5.476;2023-03-15T02:55:17;101353.59;;;2.06;81.63
72921;BME280;61064;51.654;5.476;2023-03-15T02:57:43;101377.09;;;2.21;81.60
72921;BME280;61064;51.654;5.476;2023-03-15T03:00:10;101367.19;;;2.16;81.34
72921;BME280;61064;51.654;5.476;2023-03-15T03:02:43;101391.41;;;2.28;81.63
72921;BME280;61064;51.654;5.476;2023-03-15T03:05:10;101380.81;;;2.26;81.70
72921;BME280;61064;51.654;5.476;2023-03-15T03:07:35;101375.56;;;2.26;81.57
72921;BME280;61064;51.654;5.476;2023-03-15T03:10:01;101387.88;;;2.27;81.72
72921;BME280;61064;51.654;5.476;2023-03-15T03:12:29;101407.72;;;2.40;81.93
72921;BME280;61064;51.654;5.476;2023-03-15T03:14:54;101415.78;;;2.43;81.91
72921;BME280;61064;51.654;5.476;2023-03-15T03:17:21;101420.19;;;2.44;81.97
72921;BME280;61064;51.654;5.476;2023-03-15T03:19:46;101426.41;;;2.46;81.57
72921;BME280;61064;51.654;5.476;2023-03-15T03:22:12;101431.75;;;2.47;81.99
72921;BME280;61064;51.654;5.476;2023-03-15T03:24:37;101436.16;;;2.48;81.86
72921;BME280;61064;51.654;5.476;2023-03-15T03:27:06;101440.59;;;2.49;81.96
72921;BME280;61064;51.654;5.476;2023-03-15T03:29:31;101355.78;;;1.97;81.93
72921;BME280;61064;51.654;5.476;2023-03-15T03:31:56;101447.66;;;2.50;81.99
72921;BME280;61064;51.654;5.476;2023-03-15T03:34:22;101421.53;;;2.36;81.96
72921;BME280;61064;51.654;5.476;2023-03-15T03:36:49;101456.41;;;2.51;82.09
72921;BME280;61064;51.654;5.476;2023-03-15T03:39:14;101438.13;;;2.35;81.73
72921;BME280;61064;51.654;5.476;2023-03-15T03:41:39;101466.03;;;2.50;82.47
72921;BME280;61064;51.654;5.476;2023-03-15T03:44:05;101470.41;;;2.50;82.15
72921;BME280;61064;51.654;5.476;2023-03-15T03:46:30;101443.31;;;2.33;82.29
72921;BME280;61064;51.654;5.476;2023-03-15T03:48:56;101468.50;;;2.47;82.22
72921;BME280;61064;51.654;5.476;2023-03-15T03:51:21;101473.75;;;2.47;82.47
72921;BME280;61064;51.654;5.476;2023-03-15T03:53:46;101453.13;;;2.37;82.31
72921;BME280;61064;51.654;5.476;2023-03-15T03:56:12;101414.25;;;2.13;82.26
72921;BME280;61064;51.654;5.476;2023-03-15T03:58:37;101474.66;;;2.48;82.46
72921;BME280;61064;51.654;5.476;2023-03-15T04:01:03;101456.75;;;2.39;82.36
72921;BME280;61064;51.654;5.476;2023-03-15T04:03:28;101450.13;;;2.30;82.46
72921;BME280;61064;51.654;5.476;2023-03-15T04:05:55;101480.00;;;2.49;82.73
72921;BME280;61064;51.654;5.476;2023-03-15T04:08:22;101469.03;;;2.40;82.86
72921;BME280;61064;51.654;5.476;2023-03-15T04:10:55;101481.63;;;2.47;82.70
72921;BME280;61064;51.654;5.476;2023-03-15T04:13:22;101482.53;;;2.48;82.96
72921;BME280;61064;51.654;5.476;2023-03-15T04:15:48;101437.06;;;2.14;82.54
72921;BME280;61064;51.654;5.476;2023-03-15T04:18:14;101489.88;;;2.37;83.12
72921;BME280;61064;51.654;5.476;2023-03-15T04:20:39;101507.00;;;2.47;82.83
72921;BME280;61064;51.654;5.476;2023-03-15T04:23:21;101506.69;;;2.41;83.06
72921;BME280;61064;51.654;5.476;2023-03-15T04:25:47;101525.28;;;2.45;82.72
72921;BME280;61064;51.654;5.476;2023-03-15T04:28:14;101501.72;;;2.29;82.82
72921;BME280;61064;51.654;5.476;2023-03-15T04:30:39;101502.56;;;2.28;83.01
72921;BME280;61064;51.654;5.476;2023-03-15T04:33:07;101524.84;;;2.36;83.21
72921;BME280;61064;51.654;5.476;2023-03-15T04:35:34;101533.84;;;2.41;82.89
72921;BME280;61064;51.654;5.476;2023-03-15T04:38:01;101540.75;;;2.39;83.18
72921;BME280;61064;51.654;5.476;2023-03-15T04:40:28;101536.09;;;2.34;83.42
72921;BME280;61064;51.654;5.476;2023-03-15T04:42:55;101499.47;;;2.19;83.39
72921;BME280;61064;51.654;5.476;2023-03-15T04:45:24;101527.97;;;2.29;83.36
72921;BME280;61064;51.654;5.476;2023-03-15T04:47:54;101545.94;;;2.38;83.58
72921;BME280;61064;51.654;5.476;2023-03-15T04:50:21;101511.53;;;2.16;83.49
72921;BME280;61064;51.654;5.476;2023-03-15T04:52:47;101554.63;;;2.37;83.34
72921;BME280;61064;51.654;5.476;2023-03-15T04:55:13;101539.31;;;2.28;83.47
72921;BME280;61064;51.654;5.476;2023-03-15T04:57:39;101502.97;;;2.02;83.33
72921;BME280;61064;51.654;5.476;2023-03-15T05:00:06;101536.22;;;2.19;83.67
72921;BME280;61064;51.654;5.476;2023-03-15T05:02:32;101562.28;;;2.32;83.40
72921;BME280;61064;51.654;5.476;2023-03-15T05:04:58;101569.16;;;2.30;83.64
72921;BME280;61064;51.654;5.476;2023-03-15T05:07:23;101530.19;;;2.04;83.71
72921;BME280;61064;51.654;5.476;2023-03-15T05:09:48;101533.72;;;2.04;83.67
72921;BME280;61064;51.654;5.476;2023-03-15T05:12:14;101513.66;;;1.89;83.56
72921;BME280;61064;51.654;5.476;2023-03-15T05:14:39;101487.38;;;1.71;83.38
72921;BME280;61064;51.654;5.476;2023-03-15T05:17:04;101527.03;;;1.93;83.39
72921;BME280;61064;51.654;5.476;2023-03-15T05:19:30;101551.84;;;2.00;83.49
72921;BME280;61064;51.654;5.476;2023-03-15T05:21:59;101585.03;;;2.16;83.70
72921;BME280;61064;51.654;5.476;2023-03-15T05:24:25;101580.47;;;2.12;83.79
72921;BME280;61064;51.654;5.476;2023-03-15T05:26:50;101506.09;;;1.61;83.72
72921;BME280;61064;51.654;5.476;2023-03-15T05:29:19;101567.50;;;1.98;83.72
72921;BME280;61064;51.654;5.476;2023-03-15T05:31:48;101578.72;;;1.96;83.60
72921;BME280;61064;51.654;5.476;2023-03-15T05:34:17;101594.06;;;2.04;83.65
72921;BME280;61064;51.654;5.476;2023-03-15T05:36:42;101592.28;;;2.03;83.72
72921;BME280;61064;51.654;5.476;2023-03-15T05:39:07;101576.53;;;1.87;83.85
72921;BME280;61064;51.654;5.476;2023-03-15T05:41:33;101522.97;;;1.50;83.85
72921;BME280;61064;51.654;5.476;2023-03-15T05:43:59;101612.13;;;1.98;83.76
72921;BME280;61064;51.654;5.476;2023-03-15T05:46:24;101608.50;;;1.96;83.81
72921;BME280;61064;51.654;5.476;2023-03-15T05:48:49;101560.16;;;1.59;83.85
72921;BME280;61064;51.654;5.476;2023-03-15T05:51:15;101631.06;;;1.93;83.87
72921;BME280;61064;51.654;5.476;2023-03-15T05:53:40;101628.25;;;1.90;83.75
72921;BME280;61064;51.654;5.476;2023-03-15T05:56:07;101613.66;;;1.79;83.90
72921;BME280;61064;51.654;5.476;2023-03-15T05:58:32;101624.59;;;1.86;83.98
72921;BME280;61064;51.654;5.476;2023-03-15T06:00:58;101521.72;;;1.27;84.02
72921;BME280;61064;51.654;5.476;2023-03-15T06:03:26;101604.31;;;1.67;83.95
72921;BME280;61064;51.654;5.476;2023-03-15T06:05:51;101617.53;;;1.69;83.93
72921;BME280;61064;51.654;5.476;2023-03-15T06:08:17;101605.06;;;1.65;84.32
72921;BME280;61064;51.654;5.476;2023-03-15T06:10:43;101607.44;;;1.60;84.03
72921;BME280;61064;51.654;5.476;2023-03-15T06:13:08;101644.44;;;1.81;84.09
72921;BME280;61064;51.654;5.476;2023-03-15T06:15:33;101589.31;;;1.49;83.95
72921;BME280;61064;51.654;5.476;2023-03-15T06:18:01;101655.91;;;1.83;84.13
72921;BME280;61064;51.654;5.476;2023-03-15T06:20:27;101661.06;;;1.82;84.05
72921;BME280;61064;51.654;5.476;2023-03-15T06:22:52;101653.59;;;1.73;84.26
72921;BME280;61064;51.654;5.476;2023-03-15T06:27:54;101692.81;;;1.86;84.25
72921;BME280;61064;51.654;5.476;2023-03-15T06:30:20;101643.59;;;1.66;84.35
72921;BME280;61064;51.654;5.476;2023-03-15T06:32:45;101662.63;;;1.78;84.36
72921;BME280;61064;51.654;5.476;2023-03-15T06:35:11;101651.97;;;1.75;84.54
72921;BME280;61064;51.654;5.476;2023-03-15T06:37:37;101626.78;;;1.62;84.57
72921;BME280;61064;51.654;5.476;2023-03-15T06:40:05;101682.53;;;1.91;84.69
72921;BME280;61064;51.654;5.476;2023-03-15T06:42:35;101653.19;;;1.82;84.77
72921;BME280;61064;51.654;5.476;2023-03-15T06:45:00;101651.38;;;1.81;84.75
72921;BME280;61064;51.654;5.476;2023-03-15T06:47:27;101698.47;;;2.10;84.69
72921;BME280;61064;51.654;5.476;2023-03-15T06:49:53;101714.81;;;2.21;84.74
72921;BME280;61064;51.654;5.476;2023-03-15T06:52:18;101721.19;;;2.26;84.95
72921;BME280;61064;51.654;5.476;2023-03-15T06:54:43;101726.69;;;2.30;84.79
72921;BME280;61064;51.654;5.476;2023-03-15T06:57:09;101732.13;;;2.33;84.88
72921;BME280;61064;51.654;5.476;2023-03-15T06:59:34;101701.69;;;2.21;84.63
72921;BME280;61064;51.654;5.476;2023-03-15T07:02:00;101735.94;;;2.40;84.71
72921;BME280;61064;51.654;5.476;2023-03-15T07:04:25;101693.72;;;2.19;84.70
72921;BME280;61064;51.654;5.476;2023-03-15T07:06:51;101745.16;;;2.48;84.72
72921;BME280;61064;51.654;5.476;2023-03-15T07:09:16;101681.25;;;2.15;84.97
72921;BME280;61064;51.654;5.476;2023-03-15T07:11:42;101673.19;;;2.12;84.64
72921;BME280;61064;51.654;5.476;2023-03-15T07:14:07;101754.41;;;2.58;85.00
72921;BME280;61064;51.654;5.476;2023-03-15T07:16:32;101751.16;;;2.62;85.20
72921;BME280;61064;51.654;5.476;2023-03-15T07:18:58;101750.25;;;2.61;85.21
72921;BME280;61064;51.654;5.476;2023-03-15T07:21:24;101727.78;;;2.50;84.97
72921;BME280;61064;51.654;5.476;2023-03-15T07:23:50;101764.59;;;2.68;85.22
72921;BME280;61064;51.654;5.476;2023-03-15T07:26:15;101774.91;;;2.81;85.35
72921;BME280;61064;51.654;5.476;2023-03-15T07:28:41;101695.75;;;2.41;85.06
72921;BME280;61064;51.654;5.476;2023-03-15T07:31:09;101738.84;;;2.61;85.20
72921;BME280;61064;51.654;5.476;2023-03-15T07:33:35;101792.75;;;2.86;85.02
72921;BME280;61064;51.654;5.476;2023-03-15T07:36:02;101790.09;;;2.86;85.15
72921;BME280;61064;51.654;5.476;2023-03-15T07:38:29;101751.84;;;2.75;85.41
72921;BME280;61064;51.654;5.476;2023-03-15T07:40:55;101745.13;;;2.80;85.56
72921;BME280;61064;51.654;5.476;2023-03-15T07:43:21;101797.03;;;3.18;85.16
72921;BME280;61064;51.654;5.476;2023-03-15T07:45:47;101785.38;;;3.13;84.98
72921;BME280;61064;51.654;5.476;2023-03-15T07:48:13;101799.38;;;3.30;85.02
72921;BME280;61064;51.654;5.476;2023-03-15T07:50:39;101803.31;;;3.38;85.53
72921;BME280;61064;51.654;5.476;2023-03-15T07:53:05;101771.03;;;3.24;85.38
72921;BME280;61064;51.654;5.476;2023-03-15T07:55:32;101817.63;;;3.61;85.48
72921;BME280;61064;51.654;5.476;2023-03-15T07:57:58;101811.44;;;3.60;85.26
72921;BME280;61064;51.654;5.476;2023-03-15T08:00:25;101818.28;;;3.74;84.80
72921;BME280;61064;51.654;5.476;2023-03-15T08:02:50;101779.47;;;3.53;84.87
72921;BME280;61064;51.654;5.476;2023-03-15T08:05:16;101797.38;;;3.60;84.63
72921;BME280;61064;51.654;5.476;2023-03-15T08:07:45;101776.34;;;3.60;84.87
72921;BME280;61064;51.654;5.476;2023-03-15T08:10:11;101838.06;;;4.02;84.68
72921;BME280;61064;51.654;5.476;2023-03-15T08:12:37;101850.78;;;4.10;84.55
72921;BME280;61064;51.654;5.476;2023-03-15T08:15:05;101819.19;;;4.10;84.88
72921;BME280;61064;51.654;5.476;2023-03-15T08:17:30;101855.75;;;4.41;84.40
72921;BME280;61064;51.654;5.476;2023-03-15T08:19:57;101832.66;;;4.36;84.23
72921;BME280;61064;51.654;5.476;2023-03-15T08:22:22;101816.13;;;4.38;84.39
72921;BME280;61064;51.654;5.476;2023-03-15T08:24:48;101649.63;;;3.51;83.74
72921;BME280;61064;51.654;5.476;2023-03-15T08:27:14;101797.19;;;4.47;83.97
72921;BME280;61064;51.654;5.476;2023-03-15T08:29:40;101855.06;;;4.82;83.73
72921;BME280;61064;51.654;5.476;2023-03-15T08:32:06;101866.22;;;4.96;83.61
72921;BME280;61064;51.654;5.476;2023-03-15T08:34:33;101859.47;;;5.02;83.43
72921;BME280;61064;51.654;5.476;2023-03-15T08:36:59;101867.75;;;5.10;83.24
72921;BME280;61064;51.654;5.476;2023-03-15T08:39:24;101863.75;;;5.18;83.43
72921;BME280;61064;51.654;5.476;2023-03-15T08:41:49;101806.19;;;4.90;83.11
72921;BME280;61064;51.654;5.476;2023-03-15T08:44:15;101867.13;;;5.35;83.36
72921;BME280;61064;51.654;5.476;2023-03-15T08:46:40;101850.03;;;5.27;82.65
72921;BME280;61064;51.654;5.476;2023-03-15T08:49:06;101822.41;;;5.19;82.45
72921;BME280;61064;51.654;5.476;2023-03-15T08:51:31;101872.91;;;5.47;82.68
72921;BME280;61064;51.654;5.476;2023-03-15T08:53:56;101848.88;;;5.41;82.82
72921;BME280;61064;51.654;5.476;2023-03-15T08:56:22;101890.56;;;5.69;82.84
72921;BME280;61064;51.654;5.476;2023-03-15T08:58:47;101859.41;;;5.60;82.73
72921;BME280;61064;51.654;5.476;2023-03-15T09:01:13;101888.44;;;5.81;82.27
72921;BME280;61064;51.654;5.476;2023-03-15T09:03:57;101830.38;;;5.60;81.87
72921;BME280;61064;51.654;5.476;2023-03-15T09:06:22;101892.25;;;6.08;82.02
72921;BME280;61064;51.654;5.476;2023-03-15T09:08:48;101741.88;;;5.27;81.58
72921;BME280;61064;51.654;5.476;2023-03-15T09:11:13;101842.97;;;6.09;81.64
72921;BME280;61064;51.654;5.476;2023-03-15T09:13:39;101868.50;;;6.31;81.23
72921;BME280;61064;51.654;5.476;2023-03-15T09:16:04;101895.63;;;6.47;80.67
72921;BME280;61064;51.654;5.476;2023-03-15T09:18:30;101854.47;;;6.32;80.75
72921;BME280;61064;51.654;5.476;2023-03-15T09:20:55;101856.34;;;6.34;80.51
72921;BME280;61064;51.654;5.476;2023-03-15T09:23:21;101887.34;;;6.60;79.88
72921;BME280;61064;51.654;5.476;2023-03-15T09:25:46;101755.38;;;5.98;79.62
72921;BME280;61064;51.654;5.476;2023-03-15T09:28:12;101889.88;;;6.80;79.64
72921;BME280;61064;51.654;5.476;2023-03-15T09:30:39;101887.66;;;6.92;79.29
72921;BME280;61064;51.654;5.476;2023-03-15T09:33:04;101890.66;;;7.01;79.12
72921;BME280;61064;51.654;5.476;2023-03-15T09:35:30;101892.50;;;7.03;78.58
72921;BME280;61064;51.654;5.476;2023-03-15T09:37:55;101849.44;;;6.84;78.28
72921;BME280;61064;51.654;5.476;2023-03-15T09:40:25;101891.13;;;7.13;78.60
72921;BME280;61064;51.654;5.476;2023-03-15T09:45:40;101851.97;;;7.04;77.81
72921;BME280;61064;51.654;5.476;2023-03-15T09:48:18;101867.50;;;7.19;77.31
72921;BME280;61064;51.654;5.476;2023-03-15T09:50:51;101870.56;;;7.30;77.23
72921;BME280;61064;51.654;5.476;2023-03-15T09:55:49;101843.50;;;7.38;77.28
72921;BME280;61064;51.654;5.476;2023-03-15T09:58:20;101885.88;;;7.64;76.50
72921;BME280;61064;51.654;5.476;2023-03-15T10:00:51;101900.09;;;7.66;76.11
72921;BME280;61064;51.654;5.476;2023-03-15T10:06:25;101898.75;;;7.78;76.18
72921;BME280;61064;51.654;5.476;2023-03-15T10:08:57;101907.63;;;7.79;75.58
72921;BME280;61064;51.654;5.476;2023-03-15T10:14:57;101894.59;;;7.85;75.02
72921;BME280;61064;51.654;5.476;2023-03-15T10:20:24;101907.50;;;7.76;74.57
72921;BME280;61064;51.654;5.476;2023-03-15T10:25:32;101885.34;;;7.48;74.18
72921;BME280;61064;51.654;5.476;2023-03-15T10:28:27;101915.34;;;7.73;74.08
72921;BME280;61064;51.654;5.476;2023-03-15T10:30:53;101857.63;;;7.64;74.48
72921;BME280;61064;51.654;5.476;2023-03-15T10:33:27;101844.88;;;7.78;73.67
72921;BME280;61064;51.654;5.476;2023-03-15T10:35:56;101905.56;;;8.22;72.91
72921;BME280;61064;51.654;5.476;2023-03-15T10:38:23;101872.16;;;8.01;72.90
72921;BME280;61064;51.654;5.476;2023-03-15T10:40:51;101911.97;;;8.29;72.44
72921;BME280;61064;51.654;5.476;2023-03-15T10:43:26;101891.94;;;8.12;71.49
72921;BME280;61064;51.654;5.476;2023-03-15T10:46:05;101871.66;;;7.87;71.21
72921;BME280;61064;51.654;5.476;2023-03-15T10:48:36;101892.78;;;7.84;71.18
72921;BME280;61064;51.654;5.476;2023-03-15T10:51:06;101936.31;;;7.92;71.06
72921;BME280;61064;51.654;5.476;2023-03-15T10:54:14;101938.75;;;7.86;70.94
72921;BME280;61064;51.654;5.476;2023-03-15T10:57:11;101910.59;;;7.64;70.88
72921;BME280;61064;51.654;5.476;2023-03-15T10:59:33;101936.63;;;7.76;70.87
72921;BME280;61064;51.654;5.476;2023-03-15T11:04:41;101904.41;;;7.38;70.27
72921;BME280;61064;51.654;5.476;2023-03-15T11:07:07;101941.41;;;7.61;69.86
72921;BME280;61064;51.654;5.476;2023-03-15T11:09:41;101891.56;;;7.25;69.34
72921;BME280;61064;51.654;5.476;2023-03-15T11:12:28;101945.50;;;7.52;69.29
72921;BME280;61064;51.654;5.476;2023-03-15T11:15:13;101916.44;;;7.30;69.35
72921;BME280;61064;51.654;5.476;2023-03-15T11:17:44;101944.88;;;7.36;69.71
72921;BME280;61064;51.654;5.476;2023-03-15T11:20:28;101954.78;;;7.41;69.40
72921;BME280;61064;51.654;5.476;2023-03-15T11:22:55;101959.09;;;7.38;69.27
72921;BME280;61064;51.654;5.476;2023-03-15T11:25:25;101921.91;;;7.11;69.10
72921;BME280;61064;51.654;5.476;2023-03-15T11:27:54;101938.19;;;7.22;69.08
72921;BME280;61064;51.654;5.476;2023-03-15T11:30:29;101922.25;;;7.20;69.49
72921;BME280;61064;51.654;5.476;2023-03-15T11:33:04;101915.97;;;7.40;69.62
72921;BME280;61064;51.654;5.476;2023-03-15T11:35:42;101958.41;;;7.92;69.15
72921;BME280;61064;51.654;5.476;2023-03-15T11:38:28;101937.78;;;8.09;68.95
72921;BME280;61064;51.654;5.476;2023-03-15T11:40:57;101938.94;;;8.43;69.03
72921;BME280;61064;51.654;5.476;2023-03-15T11:43:48;101951.59;;;8.78;68.89
72921;BME280;61064;51.654;5.476;2023-03-15T11:46:26;101914.69;;;8.86;67.73
72921;BME280;61064;51.654;5.476;2023-03-15T11:49:07;101943.16;;;9.21;68.17
72921;BME280;61064;51.654;5.476;2023-03-15T11:51:35;101945.53;;;9.42;67.60
72921;BME280;61064;51.654;5.476;2023-03-15T11:54:13;101943.22;;;9.52;66.76
72921;BME280;61064;51.654;5.476;2023-03-15T11:59:09;101944.88;;;9.82;66.22
72921;BME280;61064;51.654;5.476;2023-03-15T12:04:32;101928.84;;;10.12;65.67
72921;BME280;61064;51.654;5.476;2023-03-15T12:12:36;101916.59;;;10.17;63.95
72921;BME280;61064;51.654;5.476;2023-03-15T12:17:56;101860.19;;;9.95;62.84
72921;BME280;61064;51.654;5.476;2023-03-15T12:20:37;101940.16;;;10.37;62.62
72921;BME280;61064;51.654;5.476;2023-03-15T12:28:29;101933.34;;;10.47;61.04
72921;BME280;61064;51.654;5.476;2023-03-15T12:30:59;101925.16;;;10.39;60.79
72921;BME280;61064;51.654;5.476;2023-03-15T12:33:27;101936.81;;;10.45;60.01
72921;BME280;61064;51.654;5.476;2023-03-15T12:36:06;101856.56;;;9.92;57.88
72921;BME280;61064;51.654;5.476;2023-03-15T12:38:38;101926.69;;;10.30;58.74
72921;BME280;61064;51.654;5.476;2023-03-15T12:41:38;101925.09;;;10.38;58.79
72921;BME280;61064;51.654;5.476;2023-03-15T12:44:39;101927.13;;;10.47;59.10
72921;BME280;61064;51.654;5.476;2023-03-15T12:47:10;101921.81;;;10.48;59.11
72921;BME280;61064;51.654;5.476;2023-03-15T12:49:42;101866.53;;;10.35;58.54
72921;BME280;61064;51.654;5.476;2023-03-15T12:52:25;101913.41;;;10.67;58.27
72921;BME280;61064;51.654;5.476;2023-03-15T12:55:16;101922.72;;;10.86;58.55
72921;BME280;61064;51.654;5.476;2023-03-15T12:57:48;101914.88;;;10.94;58.19
72921;BME280;61064;51.654;5.476;2023-03-15T13:00:16;101919.75;;;11.13;57.93
72921;BME280;61064;51.654;5.476;2023-03-15T13:02:50;101926.06;;;11.18;57.96
72921;BME280;61064;51.654;5.476;2023-03-15T13:05:19;101920.59;;;11.12;57.33
72921;BME280;61064;51.654;5.476;2023-03-15T13:07:48;101931.13;;;11.06;57.15
72921;BME280;61064;51.654;5.476;2023-03-15T13:18:59;101918.84;;;11.12;55.45
72921;BME280;61064;51.654;5.476;2023-03-15T13:21:46;101782.88;;;10.22;55.36
72921;BME280;61064;51.654;5.476;2023-03-15T13:24:22;101881.88;;;10.87;55.82
72921;BME280;61064;51.654;5.476;2023-03-15T13:27:01;101915.28;;;11.12;55.83
72921;BME280;61064;51.654;5.476;2023-03-15T13:29:31;101897.22;;;10.99;55.18
72921;BME280;61064;51.654;5.476;2023-03-15T13:32:07;101904.44;;;11.03;54.88
72921;BME280;61064;51.654;5.476;2023-03-15T13:34:36;101811.03;;;10.52;54.96
72921;BME280;61064;51.654;5.476;2023-03-15T13:37:02;101914.47;;;11.16;54.43
72921;BME280;61064;51.654;5.476;2023-03-15T13:39:33;101911.75;;;11.13;53.84
72921;BME280;61064;51.654;5.476;2023-03-15T13:42:22;101916.00;;;11.03;54.02
72921;BME280;61064;51.654;5.476;2023-03-15T13:45:02;101903.38;;;10.95;53.77
72921;BME280;61064;51.654;5.476;2023-03-15T13:47:27;101924.75;;;10.99;54.16
72921;BME280;61064;51.654;5.476;2023-03-15T13:49:52;101893.22;;;10.77;53.89
72921;BME280;61064;51.654;5.476;2023-03-15T13:52:18;101919.53;;;11.02;54.21
72921;BME280;61064;51.654;5.476;2023-03-15T13:54:44;101896.38;;;11.00;53.74
72921;BME280;61064;51.654;5.476;2023-03-15T13:57:18;101914.34;;;11.10;53.33
72921;BME280;61064;51.654;5.476;2023-03-15T13:59:51;101929.97;;;11.35;53.64
72921;BME280;61064;51.654;5.476;2023-03-15T14:05:14;101911.13;;;11.24;53.13
72921;BME280;61064;51.654;5.476;2023-03-15T14:07:46;101927.28;;;11.34;53.27
72921;BME280;61064;51.654;5.476;2023-03-15T14:12:42;101910.31;;;11.29;52.71